createdAt,value
2019-01-26T00:00:59.561Z,99678.48
2019-01-26T00:03:31.349Z,99648.77
2019-01-26T00:06:03.068Z,99648.77
2019-01-26T00:08:34.757Z,99659.95
2019-01-26T00:11:05.515Z,99644.70
2019-01-26T00:13:37.267Z,99637.94
2019-01-26T00:16:08.896Z,99620.98
2019-01-26T00:18:40.424Z,99622.75
2019-01-26T00:21:12.031Z,99614.95
2019-01-26T00:23:43.782Z,99599.53
2019-01-26T00:26:14.494Z,99588.14
2019-01-26T00:28:46.310Z,99580.89
2019-01-26T00:31:17.867Z,99583.04
2019-01-26T00:33:49.739Z,99567.30
2019-01-26T00:36:20.516Z,99568.44
2019-01-26T00:38:52.309Z,99557.25
2019-01-26T00:41:23.837Z,99545.38
2019-01-26T00:43:55.646Z,99553.19
2019-01-26T00:46:28.446Z,99546.31
2019-01-26T00:49:00.790Z,99540.44
2019-01-26T00:51:31.636Z,99540.44
2019-01-26T00:54:03.970Z,99528.61
2019-01-26T00:56:37.106Z,99528.61
2019-01-26T00:59:10.404Z,99531.17
2019-01-26T01:01:43.350Z,99526.34
2019-01-26T01:04:15.354Z,99520.55
2019-01-26T01:06:47.289Z,99527.03
2019-01-26T01:09:20.352Z,99526.19
2019-01-26T01:11:53.133Z,99511.09
2019-01-26T01:14:26.211Z,99505.44
2019-01-26T01:16:59.132Z,99503.17
2019-01-26T01:19:30.790Z,99498.13
2019-01-26T01:22:02.621Z,99491.93
2019-01-26T01:24:34.334Z,99486.20
2019-01-26T01:27:06.312Z,99486.20
2019-01-26T01:29:39.110Z,99505.81
2019-01-26T01:32:10.814Z,99497.03
2019-01-26T01:34:42.409Z,99496.28
2019-01-26T01:37:14.310Z,99488.16
2019-01-26T01:39:45.873Z,99480.44
2019-01-26T01:42:17.811Z,99472.66
2019-01-26T01:44:49.637Z,99481.10
2019-01-26T01:47:21.454Z,99451.82
2019-01-26T01:49:53.313Z,99451.82
2019-01-26T01:52:24.894Z,99472.05
2019-01-26T01:54:57.297Z,99467.96
2019-01-26T01:57:29.056Z,99462.86
2019-01-26T02:00:00.786Z,99467.07
2019-01-26T02:02:32.397Z,99461.14
2019-01-26T02:05:04.258Z,99454.05
2019-01-26T02:07:35.885Z,99443.25
2019-01-26T02:10:10.305Z,99440.23
2019-01-26T02:12:42.007Z,99441.02
2019-01-26T02:15:14.065Z,99451.66
2019-01-26T02:17:45.809Z,99437.81
2019-01-26T02:20:21.756Z,99434.59
2019-01-26T02:22:52.496Z,99433.06
2019-01-26T02:25:24.334Z,99427.99
2019-01-26T02:27:56.069Z,99426.98
2019-01-26T02:30:27.782Z,99422.78
2019-01-26T02:32:58.494Z,99414.73
2019-01-26T02:35:30.317Z,99413.02
2019-01-26T02:38:01.899Z,99399.70
2019-01-26T02:40:34.308Z,99393.92
2019-01-26T02:43:05.989Z,99392.82
2019-01-26T02:45:37.745Z,99383.70
2019-01-26T02:48:09.446Z,99364.14
2019-01-26T02:50:41.356Z,99374.35
2019-01-26T02:53:13.048Z,99371.16
2019-01-26T02:55:44.779Z,99368.66
2019-01-26T02:58:15.464Z,99371.64
2019-01-26T03:00:47.318Z,99359.45
2019-01-26T03:03:18.958Z,99361.47
2019-01-26T03:05:50.871Z,99370.11
2019-01-26T03:08:22.832Z,99363.52
2019-01-26T03:10:54.581Z,99360.26
2019-01-26T03:13:26.275Z,99352.38
2019-01-26T03:15:58.073Z,99352.38
2019-01-26T03:18:30.306Z,99348.41
2019-01-26T03:21:01.859Z,99332.48
2019-01-26T03:23:34.068Z,99319.08
2019-01-26T03:26:05.781Z,99324.36
2019-01-26T03:28:36.574Z,99318.84
2019-01-26T03:31:08.325Z,99318.31
2019-01-26T03:33:40.395Z,99318.31
2019-01-26T03:36:12.053Z,99315.92
2019-01-26T03:38:43.795Z,99317.48
2019-01-26T03:41:14.503Z,99323.42
2019-01-26T03:43:46.327Z,99319.19
2019-01-26T03:46:18.003Z,99321.89
2019-01-26T03:48:49.806Z,99316.09
2019-01-26T03:51:21.497Z,99309.88
2019-01-26T03:53:53.314Z,99303.91
2019-01-26T03:56:24.829Z,99306.09
2019-01-26T03:58:56.612Z,99314.19
2019-01-26T04:01:28.313Z,99305.41
2019-01-26T04:04:00.990Z,99305.41
2019-01-26T04:06:32.729Z,99316.13
2019-01-26T04:09:05.087Z,99315.27
2019-01-26T04:11:37.047Z,99314.78
2019-01-26T04:14:08.822Z,99304.02
2019-01-26T04:16:40.791Z,99303.19
2019-01-26T04:19:11.664Z,99307.73
2019-01-26T04:21:43.618Z,99292.36
2019-01-26T04:24:15.735Z,99302.87
2019-01-26T04:26:46.946Z,99302.87
2019-01-26T04:29:18.792Z,99303.73
2019-01-26T04:31:50.392Z,99300.81
2019-01-26T04:34:22.378Z,99301.31
2019-01-26T04:36:54.061Z,99299.75
2019-01-26T04:39:25.813Z,99297.56
2019-01-26T04:41:57.542Z,99298.39
2019-01-26T04:44:29.697Z,99298.64
2019-01-26T04:47:01.801Z,99295.20
2019-01-26T04:49:33.541Z,99295.20
2019-01-26T04:52:05.414Z,99293.08
2019-01-26T04:54:37.076Z,99298.31
2019-01-26T04:57:08.796Z,99299.58
2019-01-26T04:59:39.506Z,99296.34
2019-01-26T05:02:11.317Z,99287.66
2019-01-26T05:04:43.002Z,99301.06
2019-01-26T05:07:14.755Z,99293.98
2019-01-26T05:09:45.494Z,99296.55
2019-01-26T05:12:17.417Z,99296.91
2019-01-26T05:14:49.076Z,99291.97
2019-01-26T05:17:20.800Z,99295.23
2019-01-26T05:19:51.611Z,99292.53
2019-01-26T05:22:23.336Z,99298.33
2019-01-26T05:24:55.771Z,99298.33
2019-01-26T05:27:26.523Z,99299.89
2019-01-26T05:29:58.807Z,99298.18
2019-01-26T05:32:31.071Z,99310.50
2019-01-26T05:35:02.812Z,99298.25
2019-01-26T05:37:34.515Z,99296.72
2019-01-26T05:40:07.792Z,99301.07
2019-01-26T05:42:38.944Z,99298.27
2019-01-26T05:45:14.903Z,99298.54
2019-01-26T05:47:49.020Z,99305.39
2019-01-26T05:50:24.313Z,99310.27
2019-01-26T05:52:56.328Z,99310.83
2019-01-26T05:55:27.885Z,99307.45
2019-01-26T05:57:59.415Z,99295.09
2019-01-26T06:00:33.582Z,99296.33
2019-01-26T06:03:05.325Z,99288.64
2019-01-26T06:05:36.892Z,99288.64
2019-01-26T06:08:08.856Z,99311.27
2019-01-26T06:10:40.783Z,99306.33
2019-01-26T06:13:11.641Z,99310.59
2019-01-26T06:15:43.354Z,99306.37
2019-01-26T06:18:16.889Z,99306.37
2019-01-26T06:20:48.913Z,99307.77
2019-01-26T06:23:20.790Z,99305.72
2019-01-26T06:25:52.637Z,99304.24
2019-01-26T06:28:24.643Z,99294.48
2019-01-26T06:30:55.700Z,99299.41
2019-01-26T06:33:26.922Z,99303.38
2019-01-26T06:35:58.773Z,99292.89
2019-01-26T06:38:29.492Z,99290.81
2019-01-26T06:41:01.793Z,99302.49
2019-01-26T06:43:33.460Z,99295.89
2019-01-26T06:46:05.319Z,99295.37
2019-01-26T06:48:37.067Z,99293.98
2019-01-26T06:51:08.846Z,99293.98
2019-01-26T06:53:40.957Z,99290.73
2019-01-26T06:56:12.828Z,99289.12
2019-01-26T06:58:44.808Z,99287.22
2019-01-26T07:01:16.466Z,99288.66
2019-01-26T07:03:48.317Z,99280.77
2019-01-26T07:06:26.358Z,99294.53
2019-01-26T07:08:58.309Z,99294.52
2019-01-26T07:11:30.288Z,99299.39
2019-01-26T07:14:01.914Z,99293.72
2019-01-26T07:16:33.437Z,99286.71
2019-01-26T07:19:05.074Z,99300.16
2019-01-26T07:21:36.810Z,99295.50
2019-01-26T07:24:08.409Z,99298.74
2019-01-26T07:26:40.072Z,99292.14
2019-01-26T07:29:11.793Z,99297.50
2019-01-26T07:31:43.408Z,99295.33
2019-01-26T07:34:15.057Z,99300.75
2019-01-26T07:36:46.791Z,99297.80
2019-01-26T07:39:18.275Z,99296.47
2019-01-26T07:41:49.876Z,99299.05
2019-01-26T07:44:21.760Z,99292.03
2019-01-26T07:46:52.472Z,99290.05
2019-01-26T07:49:24.314Z,99290.73
2019-01-26T07:51:56.033Z,99292.09
2019-01-26T07:54:27.870Z,99287.20
2019-01-26T07:56:59.427Z,99284.02
2019-01-26T07:59:31.069Z,99287.91
2019-01-26T08:02:02.986Z,99286.39
2019-01-26T08:04:34.811Z,99289.00
2019-01-26T08:07:05.565Z,99278.06
2019-01-26T08:09:37.357Z,99280.58
2019-01-26T08:12:09.029Z,99280.58
2019-01-26T08:14:40.779Z,99273.44
2019-01-26T08:17:11.471Z,99276.02
2019-01-26T08:19:43.291Z,99276.88
2019-01-26T08:22:14.904Z,99278.66
2019-01-26T08:24:46.778Z,99272.73
2019-01-26T08:27:17.456Z,99271.44
2019-01-26T08:29:49.315Z,99273.56
2019-01-26T08:32:21.356Z,99269.50
2019-01-26T08:34:53.271Z,99269.20
2019-01-26T08:37:25.334Z,99276.65
2019-01-26T08:39:57.373Z,99263.84
2019-01-26T08:42:29.408Z,99265.59
2019-01-26T08:45:01.313Z,99249.41
2019-01-26T08:47:32.862Z,99262.97
2019-01-26T08:50:05.273Z,99259.27
2019-01-26T08:52:37.014Z,99265.77
2019-01-26T08:55:10.393Z,99263.03
2019-01-26T08:57:42.052Z,99257.52
2019-01-26T09:00:21.806Z,99254.25
2019-01-26T09:03:13.308Z,99244.16
2019-01-26T09:06:00.341Z,99252.55
2019-01-26T09:08:32.270Z,99248.58
2019-01-26T09:11:03.893Z,99250.66
2019-01-26T09:13:36.316Z,99253.53
2019-01-26T09:16:09.058Z,99242.27
2019-01-26T09:18:40.788Z,99241.48
2019-01-26T09:21:12.587Z,99243.80
2019-01-26T09:23:44.313Z,99253.86
2019-01-26T09:26:15.882Z,99253.86
2019-01-26T09:28:47.813Z,99250.78
2019-01-26T09:31:19.662Z,99248.75
2019-01-26T09:33:51.706Z,99242.81
2019-01-26T09:36:22.494Z,99242.81
2019-01-26T09:38:54.317Z,99244.60
2019-01-26T09:41:25.878Z,99255.60
2019-01-26T09:43:57.470Z,99250.02
2019-01-26T09:46:29.305Z,99249.50
2019-01-26T09:49:00.896Z,99247.67
2019-01-26T09:51:32.616Z,99253.09
2019-01-26T09:54:04.395Z,99229.67
2019-01-26T09:56:36.308Z,99229.67
2019-01-26T09:59:07.837Z,99229.20
2019-01-26T10:01:39.612Z,99229.60
2019-01-26T10:04:11.467Z,99223.98
2019-01-26T10:06:43.310Z,99232.37
2019-01-26T10:09:14.857Z,99232.37
2019-01-26T10:11:46.398Z,99231.23
2019-01-26T10:14:18.256Z,99228.17
2019-01-26T10:16:49.813Z,99229.09
2019-01-26T10:19:22.301Z,99222.19
2019-01-26T10:21:53.909Z,99223.94
2019-01-26T10:24:25.749Z,99221.66
2019-01-26T10:26:56.446Z,99218.56
2019-01-26T10:29:28.402Z,99213.34
2019-01-26T10:32:00.059Z,99206.11
2019-01-26T10:34:31.798Z,99206.63
2019-01-26T10:37:08.571Z,99200.90
2019-01-26T10:39:40.337Z,99185.48
2019-01-26T10:42:27.053Z,99185.48
2019-01-26T10:44:58.764Z,99191.68
2019-01-26T10:47:29.577Z,99187.23
2019-01-26T10:50:01.551Z,99181.09
2019-01-26T10:52:33.292Z,99181.09
2019-01-26T10:55:05.309Z,99173.30
2019-01-26T10:57:37.297Z,99174.19
2019-01-26T11:00:14.617Z,99175.28
2019-01-26T11:03:14.955Z,99147.05
2019-01-26T11:05:50.835Z,99147.05
2019-01-26T11:08:26.550Z,99170.98
2019-01-26T11:10:57.595Z,99163.83
2019-01-26T11:13:29.259Z,99162.86
2019-01-26T11:16:01.298Z,99165.05
2019-01-26T11:18:33.361Z,99154.14
2019-01-26T11:21:05.306Z,99151.52
2019-01-26T11:23:37.350Z,99148.84
2019-01-26T11:26:09.306Z,99143.30
2019-01-26T11:28:40.862Z,99144.99
2019-01-26T11:31:14.318Z,99145.56
2019-01-26T11:33:46.297Z,99138.55
2019-01-26T11:36:17.823Z,99132.59
2019-01-26T11:38:49.614Z,99131.55
2019-01-26T11:41:21.397Z,99103.20
2019-01-26T11:43:53.057Z,99103.20
2019-01-26T11:46:46.314Z,99117.04
2019-01-26T11:49:18.305Z,99120.66
2019-01-26T11:52:09.729Z,99111.83
2019-01-26T11:55:19.549Z,99104.66
2019-01-26T11:57:51.311Z,99104.23
2019-01-26T12:00:47.380Z,99102.35
2019-01-26T12:03:42.356Z,99092.74
2019-01-26T12:06:23.639Z,99088.83
2019-01-26T12:08:54.547Z,99090.22
2019-01-26T12:11:27.372Z,99084.16
2019-01-26T12:13:59.566Z,99084.16
2019-01-26T12:16:31.820Z,99077.97
2019-01-26T12:19:03.415Z,99077.97
2019-01-26T12:21:35.146Z,99073.60
2019-01-26T12:24:06.748Z,99074.84
2019-01-26T12:26:37.513Z,99075.61
2019-01-26T12:29:09.302Z,99073.66
2019-01-26T12:31:40.959Z,99074.89
2019-01-26T12:34:17.060Z,99074.56
2019-01-26T12:36:48.761Z,99072.25
2019-01-26T12:39:19.596Z,99073.55
2019-01-26T12:41:51.417Z,99073.42
2019-01-26T12:44:23.306Z,99073.42
2019-01-26T12:46:54.791Z,99071.66
2019-01-26T12:49:29.692Z,99075.51
2019-01-26T12:52:00.315Z,99067.44
2019-01-26T12:54:32.268Z,99063.68
2019-01-26T12:57:03.852Z,99067.25
2019-01-26T12:59:35.655Z,99064.20
2019-01-26T13:02:08.006Z,99048.69
2019-01-26T13:04:39.793Z,99048.69
2019-01-26T13:07:11.624Z,99053.84
2019-01-26T13:09:42.706Z,99056.11
2019-01-26T13:12:13.684Z,99050.45
2019-01-26T13:14:44.589Z,99057.45
2019-01-26T13:17:16.781Z,99058.88
2019-01-26T13:19:47.653Z,99058.88
2019-01-26T13:22:19.446Z,99034.94
2019-01-26T13:24:51.802Z,99034.94
2019-01-26T13:27:23.789Z,99057.80
2019-01-26T13:29:55.605Z,99056.37
2019-01-26T13:32:27.814Z,99047.46
2019-01-26T13:34:59.877Z,99047.46
2019-01-26T13:37:31.848Z,99052.19
2019-01-26T13:40:03.835Z,99055.20
2019-01-26T13:42:35.640Z,99059.73
2019-01-26T13:45:09.844Z,99053.01
2019-01-26T13:47:41.739Z,99053.01
2019-01-26T13:50:12.640Z,99056.45
2019-01-26T13:52:44.412Z,99054.58
2019-01-26T13:55:19.342Z,99054.58
2019-01-26T13:57:51.390Z,99060.47
2019-01-26T14:00:28.386Z,99064.45
2019-01-26T14:03:00.793Z,99061.98
2019-01-26T14:05:31.630Z,99069.03
2019-01-26T14:08:03.374Z,99055.39
2019-01-26T14:10:35.328Z,99055.39
2019-01-26T14:13:08.314Z,99067.84
2019-01-26T14:15:40.304Z,99060.75
2019-01-26T14:18:12.795Z,99067.36
2019-01-26T14:20:44.653Z,99053.27
2019-01-26T14:23:16.375Z,99054.88
2019-01-26T14:25:48.855Z,99054.88
2019-01-26T14:28:20.804Z,99058.33
2019-01-26T14:31:02.031Z,99054.15
2019-01-26T14:33:34.307Z,99053.42
2019-01-26T14:36:06.074Z,99054.06
2019-01-26T14:38:37.794Z,99067.41
2019-01-26T14:41:10.317Z,99060.75
2019-01-26T14:43:42.321Z,99064.54
2019-01-26T14:46:14.382Z,99061.24
2019-01-26T14:48:46.451Z,99060.88
2019-01-26T14:51:18.344Z,99063.60
2019-01-26T14:53:50.327Z,99059.66
2019-01-26T14:56:22.310Z,99061.76
2019-01-26T14:58:54.317Z,99058.86
2019-01-26T15:01:26.801Z,99062.55
2019-01-26T15:03:58.803Z,99061.81
2019-01-26T15:06:30.817Z,99061.72
2019-01-26T15:09:02.834Z,99064.34
2019-01-26T15:11:34.844Z,99072.42
2019-01-26T15:14:06.777Z,99069.08
2019-01-26T15:16:37.716Z,99065.86
2019-01-26T15:19:08.660Z,99066.69
2019-01-26T15:21:40.783Z,99058.47
2019-01-26T15:24:11.681Z,99058.47
2019-01-26T15:26:44.634Z,99068.95
2019-01-26T15:29:16.577Z,99058.17
2019-01-26T15:31:48.772Z,99064.77
2019-01-26T15:34:19.542Z,99064.77
2019-01-26T15:36:51.396Z,99057.89
2019-01-26T15:39:23.314Z,99057.89
2019-01-26T15:41:55.318Z,99073.05
2019-01-26T15:44:27.033Z,99073.35
2019-01-26T15:46:58.809Z,99071.48
2019-01-26T15:49:30.876Z,99073.05
2019-01-26T15:52:02.810Z,99070.86
2019-01-26T15:54:34.867Z,99073.98
2019-01-26T15:57:06.798Z,99071.13
2019-01-26T15:59:38.088Z,99071.97
2019-01-26T16:02:09.804Z,99072.85
2019-01-26T16:04:41.643Z,99077.02
2019-01-26T16:07:13.806Z,99073.58
2019-01-26T16:09:45.618Z,99073.58
2019-01-26T16:12:17.406Z,99076.42
2019-01-26T16:14:49.306Z,99076.42
2019-01-26T16:17:21.045Z,99078.17
2019-01-26T16:19:52.808Z,99081.51
2019-01-26T16:22:24.582Z,99079.42
2019-01-26T16:24:56.471Z,99073.75
2019-01-26T16:27:28.298Z,99073.75
2019-01-26T16:29:59.859Z,99070.94
2019-01-26T16:32:31.750Z,99073.86
2019-01-26T16:35:02.517Z,99065.32
2019-01-26T16:37:34.314Z,99070.42
2019-01-26T16:40:07.835Z,99064.02
2019-01-26T16:42:39.447Z,99065.38
2019-01-26T16:45:17.786Z,99067.50
2019-01-26T16:47:48.546Z,99061.73
2019-01-26T16:50:27.705Z,99052.26
2019-01-26T16:52:58.306Z,99052.26
2019-01-26T16:55:30.068Z,99060.02
2019-01-26T16:58:01.790Z,99052.98
2019-01-26T17:00:50.320Z,99059.59
2019-01-26T17:03:22.717Z,99054.82
2019-01-26T17:05:53.617Z,99054.72
2019-01-26T17:08:26.105Z,99056.14
2019-01-26T17:10:57.791Z,99056.14
2019-01-26T17:13:29.669Z,99054.93
2019-01-26T17:16:01.402Z,99054.20
2019-01-26T17:18:33.311Z,99052.20
2019-01-26T17:21:05.055Z,99048.66
2019-01-26T17:23:56.587Z,99046.58
2019-01-26T17:26:28.370Z,99046.92
2019-01-26T17:29:00.060Z,99046.92
2019-01-26T17:31:31.773Z,99041.23
2019-01-26T17:34:02.490Z,99045.94
2019-01-26T17:36:34.418Z,99045.84
2019-01-26T17:39:09.783Z,99041.86
2019-01-26T17:41:41.432Z,99039.29
2019-01-26T17:44:13.307Z,99046.95
2019-01-26T17:46:45.060Z,99040.47
2019-01-26T17:49:16.807Z,99044.47
2019-01-26T17:51:48.529Z,99044.25
2019-01-26T17:54:20.377Z,99047.17
2019-01-26T17:56:52.305Z,99045.91
2019-01-26T17:59:24.322Z,99040.42
2019-01-26T18:01:56.309Z,99036.83
2019-01-26T18:04:27.869Z,99035.09
2019-01-26T18:06:59.644Z,99039.58
2019-01-26T18:09:31.657Z,99033.11
2019-01-26T18:12:03.378Z,99032.61
2019-01-26T18:14:35.033Z,99032.61
2019-01-26T18:17:08.299Z,99028.67
2019-01-26T18:19:39.840Z,99028.61
2019-01-26T18:22:11.609Z,99021.51
2019-01-26T18:24:43.370Z,99011.78
2019-01-26T18:27:15.013Z,99011.78
2019-01-26T18:29:46.774Z,99022.05
2019-01-26T18:32:18.787Z,99016.33
2019-01-26T18:34:50.348Z,99023.83
2019-01-26T18:37:22.031Z,99019.88
2019-01-26T18:39:53.789Z,99009.64
2019-01-26T18:42:25.477Z,99009.66
2019-01-26T18:44:57.062Z,99011.06
2019-01-26T18:47:29.301Z,99008.78
2019-01-26T18:50:00.898Z,99004.21
2019-01-26T18:52:33.003Z,98997.41
2019-01-26T18:55:05.064Z,98996.86
2019-01-26T18:57:36.760Z,98995.81
2019-01-26T19:00:13.245Z,98992.52
2019-01-26T19:02:46.267Z,98986.81
2019-01-26T19:05:20.777Z,98986.46
2019-01-26T19:07:52.356Z,98984.92
2019-01-26T19:10:24.062Z,98981.90
2019-01-26T19:12:55.805Z,98981.37
2019-01-26T19:15:27.581Z,98974.05
2019-01-26T19:17:59.336Z,98960.06
2019-01-26T19:20:31.301Z,98960.06
2019-01-26T19:23:03.064Z,98964.77
2019-01-26T19:25:35.273Z,98962.16
2019-01-26T19:28:06.993Z,98960.11
2019-01-26T19:30:38.730Z,98962.47
2019-01-26T19:33:10.373Z,98955.75
2019-01-26T19:35:42.302Z,98959.62
2019-01-26T19:38:13.891Z,98958.23
2019-01-26T19:40:45.808Z,98955.45
2019-01-26T19:43:17.532Z,98955.33
2019-01-26T19:45:49.306Z,98953.49
2019-01-26T19:48:21.301Z,98953.75
2019-01-26T19:50:53.024Z,98942.54
2019-01-26T19:53:24.741Z,98949.87
2019-01-26T19:55:56.436Z,98951.80
2019-01-26T19:58:30.148Z,98952.49
2019-01-26T20:01:02.255Z,98945.36
2019-01-26T20:03:33.855Z,98939.20
2019-01-26T20:06:05.607Z,98943.02
2019-01-26T20:08:37.371Z,98926.92
2019-01-26T20:11:09.309Z,98926.92
2019-01-26T20:13:40.861Z,98943.11
2019-01-26T20:16:12.653Z,98941.09
2019-01-26T20:18:44.414Z,98924.36
2019-01-26T20:21:17.698Z,98924.36
2019-01-26T20:23:49.411Z,98926.89
2019-01-26T20:26:21.306Z,98917.75
2019-01-26T20:28:53.413Z,98921.78
2019-01-26T20:31:25.062Z,98925.08
2019-01-26T20:33:56.769Z,98921.75
2019-01-26T20:36:27.475Z,98915.70
2019-01-26T20:38:59.456Z,98913.39
2019-01-26T20:41:31.264Z,98909.74
2019-01-26T20:45:27.058Z,98892.32
2019-01-26T20:47:58.767Z,98892.32
2019-01-26T20:50:29.526Z,98897.64
2019-01-26T20:53:01.262Z,98895.87
2019-01-26T20:55:32.841Z,98895.87
2019-01-26T20:58:04.581Z,98895.04
2019-01-26T21:00:36.255Z,98881.34
2019-01-26T21:03:07.815Z,98881.34
2019-01-26T21:05:39.600Z,98884.17
2019-01-26T21:08:11.330Z,98862.88
2019-01-26T21:10:43.016Z,98862.88
2019-01-26T21:13:16.488Z,98877.59
2019-01-26T21:15:48.300Z,98875.40
2019-01-26T21:18:19.845Z,98871.94
2019-01-26T21:20:51.580Z,98870.81
2019-01-26T21:23:23.341Z,98855.98
2019-01-26T21:25:55.026Z,98855.98
2019-01-26T21:28:26.771Z,98855.23
2019-01-26T21:30:57.487Z,98856.30
2019-01-26T21:33:29.300Z,98859.75
2019-01-26T21:36:00.829Z,98857.95
2019-01-26T21:38:32.606Z,98856.30
2019-01-26T21:41:04.366Z,98847.00
2019-01-26T21:43:36.554Z,98847.00
2019-01-26T21:46:07.919Z,98846.39
2019-01-26T21:48:39.293Z,98842.00
2019-01-26T21:51:10.869Z,98836.77
2019-01-26T21:53:42.721Z,98834.99
2019-01-26T21:56:13.434Z,98836.58
2019-01-26T21:58:45.294Z,98843.13
2019-01-26T22:01:16.893Z,98837.41
2019-01-26T22:03:48.734Z,98833.77
2019-01-26T22:06:19.435Z,98841.34
2019-01-26T22:08:51.300Z,98849.38
2019-01-26T22:11:22.837Z,98844.59
2019-01-26T22:13:54.580Z,98839.47
2019-01-26T22:16:26.274Z,98825.70
2019-01-26T22:18:58.303Z,98825.70
2019-01-26T22:21:30.277Z,98835.29
2019-01-26T22:24:01.853Z,98836.13
2019-01-26T22:26:33.585Z,98832.89
2019-01-26T22:29:05.300Z,98818.39
2019-01-26T22:31:37.028Z,98818.39
2019-01-26T22:34:08.765Z,98813.80
2019-01-26T22:36:39.487Z,98819.00
2019-01-26T22:39:11.773Z,98817.16
2019-01-26T22:41:42.452Z,98820.45
2019-01-26T22:44:14.301Z,98818.28
2019-01-26T22:46:45.877Z,98812.22
2019-01-26T22:49:17.585Z,98808.69
2019-01-26T22:51:53.238Z,98801.72
2019-01-26T22:54:21.688Z,98797.42
2019-01-26T22:56:52.490Z,98805.14
2019-01-26T22:59:24.297Z,98803.59
2019-01-26T23:01:55.913Z,98797.31
2019-01-26T23:05:22.698Z,98796.77
2019-01-26T23:08:02.935Z,98799.17
2019-01-26T23:11:25.266Z,98796.46
2019-01-26T23:14:43.707Z,98788.11
2019-01-26T23:17:47.419Z,98780.58
2019-01-26T23:21:02.740Z,98774.22
2019-01-26T23:24:20.657Z,98763.27
2019-01-26T23:28:05.762Z,98768.48
2019-01-26T23:31:18.624Z,98760.58
2019-01-26T23:33:53.549Z,98744.95
2019-01-26T23:36:25.302Z,98744.95
2019-01-26T23:39:02.229Z,98748.47
2019-01-26T23:41:30.313Z,98724.49
2019-01-26T23:44:01.866Z,98724.49
2019-01-26T23:46:33.712Z,98738.47
2019-01-26T23:49:05.378Z,98732.22
2019-01-26T23:51:37.066Z,98729.41
2019-01-26T23:54:08.779Z,98724.28
2019-01-26T23:56:40.464Z,98724.09
2019-01-26T23:59:12.320Z,98719.71
